메인 페이지
METAR-TAF:

METAR-TAF

공항 :

Oxnard Airport

옥스나드, 캘리포니아, 미국

위도: 34-12-02N, 경도: 119-12-11W, 고도: 13m

현재 날씨관측

예보는 18분 전, 19:51시(UTC)에 발표되었습니다.
11kt
온도 21°C
습도 73%
기압 1012 hPa
시정: 11.3km
고도 2400ft 상공 흐림

METAR: KOXR 191951Z 27011KT 7SM OVC024 21/16 A2988 RMK AO2 SLP117 T02110156 $

시각: 13:09 (20:09 UTC)

예보

예보는 2 시간 29분 전, 17:40시(UTC)에 발표되었습니다.
예보 대상 시간: 19일 18시부터 20일 18시까지 (UTC)
서남서5kt
시정: 10km
고도 2000ft 상공 흐림
19일 2000시부터 (UTC)
10kt
시정: 10km
맑음
20일 0500시부터 (UTC)
여러 방향의 바람 3kt
시정: 10km
맑음
20일 0900시부터 (UTC)
여러 방향의 바람 3kt
시정: 10km
고도 1200ft 상공 구름 많음
20일 1400시부터 (UTC)
여러 방향의 바람 3kt
시정: 6.4km
고도 1500ft 상공 흐림
연무
20일 1600시부터 (UTC)
여러 방향의 바람 3kt
시정: 9.7km
고도 1800ft 상공 구름 많음
연무,

TAF: KOXR 191740Z 1918/2018 25005KT P6SM OVC020 FM192000 26010KT P6SM SKC FM200500 VRB03KT P6SM SKC FM200900 VRB03KT P6SM BKN012 FM201400 VRB03KT 4SM HZ OVC015 FM201600 VRB03KT 6SM HZ BKN018

4,000개 이상의 공항 관측 자료 및 예보 (METAR 및 TAF 보고).

지도상에서 검색 가능한 기상관측소가 노란 점과 빨간 점으로 표시되어 있습니다.

기상관측소 명을 보려면 표시 위로 마우스를 이동하세요.

날씨 관측과 예보를 보려면 클릭하세요.

지도 변경 : 확대하려면 엑스 표시가 있는 녹색 버튼, 축소하려면 빼기 표시가 있는 녹색 버튼, 다음 페이지의 지도를 보려면 녹색 화살표를 클릭하세요.


METAR-TAF: